sensor_id;sensor_type;location;lat;lon;timestamp;P1;durP1;ratioP1;P2;durP2;ratioP2
22034;SDS011;11181;51.002;4.356;2023-05-16T00:01:16;13.87;;;2.53;;
22034;SDS011;11181;51.002;4.356;2023-05-16T00:03:43;8.97;;;1.93;;
22034;SDS011;11181;51.002;4.356;2023-05-16T00:06:10;8.70;;;2.10;;
22034;SDS011;11181;51.002;4.356;2023-05-16T00:08:37;11.57;;;2.23;;
22034;SDS011;11181;51.002;4.356;2023-05-16T00:11:04;8.77;;;2.00;;
22034;SDS011;11181;51.002;4.356;2023-05-16T00:13:33;10.20;;;2.10;;
22034;SDS011;11181;51.002;4.356;2023-05-16T00:15:59;11.60;;;1.90;;
22034;SDS011;11181;51.002;4.356;2023-05-16T00:18:28;6.10;;;2.00;;
22034;SDS011;11181;51.002;4.356;2023-05-16T00:20:55;6.03;;;1.73;;
22034;SDS011;11181;51.002;4.356;2023-05-16T00:23:22;12.63;;;3.17;;
22034;SDS011;11181;51.002;4.356;2023-05-16T00:25:49;9.33;;;2.07;;
22034;SDS011;11181;51.002;4.356;2023-05-16T00:28:16;6.13;;;1.73;;
22034;SDS011;11181;51.002;4.356;2023-05-16T00:30:44;19.47;;;4.23;;
22034;SDS011;11181;51.002;4.356;2023-05-16T00:33:11;10.93;;;2.10;;
22034;SDS011;11181;51.002;4.356;2023-05-16T00:35:38;13.00;;;2.20;;
22034;SDS011;11181;51.002;4.356;2023-05-16T00:38:05;11.23;;;2.60;;
22034;SDS011;11181;51.002;4.356;2023-05-16T00:40:32;10.47;;;2.17;;
22034;SDS011;11181;51.002;4.356;2023-05-16T00:42:59;6.13;;;1.83;;
22034;SDS011;11181;51.002;4.356;2023-05-16T00:45:25;7.37;;;2.30;;
22034;SDS011;11181;51.002;4.356;2023-05-16T00:47:54;8.57;;;1.93;;
22034;SDS011;11181;51.002;4.356;2023-05-16T00:50:21;7.83;;;1.97;;
22034;SDS011;11181;51.002;4.356;2023-05-16T00:52:48;7.47;;;1.90;;
22034;SDS011;11181;51.002;4.356;2023-05-16T00:55:15;10.13;;;1.77;;
22034;SDS011;11181;51.002;4.356;2023-05-16T00:57:42;13.50;;;3.50;;
22034;SDS011;11181;51.002;4.356;2023-05-16T01:00:09;12.23;;;2.63;;
22034;SDS011;11181;51.002;4.356;2023-05-16T01:02:38;8.63;;;1.50;;
22034;SDS011;11181;51.002;4.356;2023-05-16T01:05:07;9.20;;;1.77;;
22034;SDS011;11181;51.002;4.356;2023-05-16T01:07:35;12.07;;;2.23;;
22034;SDS011;11181;51.002;4.356;2023-05-16T01:10:02;7.03;;;1.60;;
22034;SDS011;11181;51.002;4.356;2023-05-16T01:12:34;7.37;;;1.93;;
22034;SDS011;11181;51.002;4.356;2023-05-16T01:15:07;6.07;;;2.07;;
22034;SDS011;11181;51.002;4.356;2023-05-16T01:17:39;8.43;;;1.30;;
22034;SDS011;11181;51.002;4.356;2023-05-16T01:20:16;7.90;;;1.90;;
22034;SDS011;11181;51.002;4.356;2023-05-16T01:22:58;6.17;;;1.23;;
22034;SDS011;11181;51.002;4.356;2023-05-16T01:25:37;7.03;;;1.63;;
22034;SDS011;11181;51.002;4.356;2023-05-16T01:28:12;7.80;;;2.17;;
22034;SDS011;11181;51.002;4.356;2023-05-16T01:30:41;5.83;;;1.70;;
22034;SDS011;11181;51.002;4.356;2023-05-16T01:33:09;8.77;;;2.43;;
22034;SDS011;11181;51.002;4.356;2023-05-16T01:35:38;9.17;;;1.67;;
22034;SDS011;11181;51.002;4.356;2023-05-16T01:38:10;4.57;;;1.87;;
22034;SDS011;11181;51.002;4.356;2023-05-16T01:40:43;5.80;;;1.87;;
22034;SDS011;11181;51.002;4.356;2023-05-16T01:43:23;11.20;;;1.97;;
22034;SDS011;11181;51.002;4.356;2023-05-16T01:45:56;6.00;;;1.77;;
22034;SDS011;11181;51.002;4.356;2023-05-16T01:48:29;9.73;;;2.03;;
22034;SDS011;11181;51.002;4.356;2023-05-16T01:51:00;7.40;;;2.27;;
22034;SDS011;11181;51.002;4.356;2023-05-16T01:53:31;8.47;;;2.83;;
22034;SDS011;11181;51.002;4.356;2023-05-16T01:56:02;11.43;;;1.97;;
22034;SDS011;11181;51.002;4.356;2023-05-16T01:58:32;11.27;;;2.97;;
22034;SDS011;11181;51.002;4.356;2023-05-16T02:01:00;7.23;;;1.60;;
22034;SDS011;11181;51.002;4.356;2023-05-16T02:03:28;5.23;;;2.10;;
22034;SDS011;11181;51.002;4.356;2023-05-16T02:06:03;15.37;;;2.43;;
22034;SDS011;11181;51.002;4.356;2023-05-16T02:08:30;10.17;;;1.97;;
22034;SDS011;11181;51.002;4.356;2023-05-16T02:10:57;6.87;;;1.63;;
22034;SDS011;11181;51.002;4.356;2023-05-16T02:13:24;10.77;;;1.73;;
22034;SDS011;11181;51.002;4.356;2023-05-16T02:15:53;13.97;;;2.60;;
22034;SDS011;11181;51.002;4.356;2023-05-16T02:18:19;12.47;;;2.43;;
22034;SDS011;11181;51.002;4.356;2023-05-16T02:20:47;6.80;;;1.70;;
22034;SDS011;11181;51.002;4.356;2023-05-16T02:23:14;7.77;;;1.70;;
22034;SDS011;11181;51.002;4.356;2023-05-16T02:25:41;14.07;;;2.10;;
22034;SDS011;11181;51.002;4.356;2023-05-16T02:28:08;9.20;;;2.20;;
22034;SDS011;11181;51.002;4.356;2023-05-16T02:30:36;6.37;;;1.90;;
22034;SDS011;11181;51.002;4.356;2023-05-16T02:33:04;9.47;;;2.27;;
22034;SDS011;11181;51.002;4.356;2023-05-16T02:35:31;6.93;;;1.60;;
22034;SDS011;11181;51.002;4.356;2023-05-16T02:37:58;18.80;;;2.67;;
22034;SDS011;11181;51.002;4.356;2023-05-16T02:40:25;9.27;;;2.33;;
22034;SDS011;11181;51.002;4.356;2023-05-16T02:42:52;7.97;;;1.67;;
22034;SDS011;11181;51.002;4.356;2023-05-16T02:45:22;12.27;;;2.33;;
22034;SDS011;11181;51.002;4.356;2023-05-16T02:47:49;5.53;;;1.60;;
22034;SDS011;11181;51.002;4.356;2023-05-16T02:50:17;8.73;;;1.80;;
22034;SDS011;11181;51.002;4.356;2023-05-16T02:52:44;5.03;;;1.73;;
22034;SDS011;11181;51.002;4.356;2023-05-16T02:55:11;6.80;;;1.17;;
22034;SDS011;11181;51.002;4.356;2023-05-16T02:57:38;9.60;;;1.50;;
22034;SDS011;11181;51.002;4.356;2023-05-16T03:00:06;9.90;;;2.97;;
22034;SDS011;11181;51.002;4.356;2023-05-16T03:02:35;10.87;;;1.87;;
22034;SDS011;11181;51.002;4.356;2023-05-16T03:05:02;7.50;;;1.93;;
22034;SDS011;11181;51.002;4.356;2023-05-16T03:07:31;5.13;;;1.50;;
22034;SDS011;11181;51.002;4.356;2023-05-16T03:09:58;8.47;;;1.70;;
22034;SDS011;11181;51.002;4.356;2023-05-16T03:12:25;8.10;;;1.77;;
22034;SDS011;11181;51.002;4.356;2023-05-16T03:14:52;10.13;;;1.60;;
22034;SDS011;11181;51.002;4.356;2023-05-16T03:17:19;5.17;;;1.60;;
22034;SDS011;11181;51.002;4.356;2023-05-16T03:19:46;7.90;;;2.10;;
22034;SDS011;11181;51.002;4.356;2023-05-16T03:22:14;2.93;;;1.63;;
22034;SDS011;11181;51.002;4.356;2023-05-16T03:24:42;7.93;;;1.83;;
22034;SDS011;11181;51.002;4.356;2023-05-16T03:27:09;4.23;;;1.63;;
22034;SDS011;11181;51.002;4.356;2023-05-16T03:29:36;7.77;;;2.33;;
22034;SDS011;11181;51.002;4.356;2023-05-16T03:32:03;6.33;;;1.70;;
22034;SDS011;11181;51.002;4.356;2023-05-16T03:34:30;7.73;;;1.53;;
22034;SDS011;11181;51.002;4.356;2023-05-16T03:36:57;10.57;;;1.87;;
22034;SDS011;11181;51.002;4.356;2023-05-16T03:39:24;8.10;;;2.00;;
22034;SDS011;11181;51.002;4.356;2023-05-16T03:41:52;4.40;;;1.57;;
22034;SDS011;11181;51.002;4.356;2023-05-16T03:44:23;9.23;;;2.00;;
22034;SDS011;11181;51.002;4.356;2023-05-16T03:46:49;8.73;;;1.57;;
22034;SDS011;11181;51.002;4.356;2023-05-16T03:49:24;8.77;;;2.03;;
22034;SDS011;11181;51.002;4.356;2023-05-16T03:51:52;8.67;;;2.37;;
22034;SDS011;11181;51.002;4.356;2023-05-16T03:54:19;8.23;;;2.43;;
22034;SDS011;11181;51.002;4.356;2023-05-16T03:56:47;6.50;;;1.67;;
22034;SDS011;11181;51.002;4.356;2023-05-16T03:59:15;6.17;;;2.00;;
22034;SDS011;11181;51.002;4.356;2023-05-16T04:01:42;7.03;;;2.13;;
22034;SDS011;11181;51.002;4.356;2023-05-16T04:04:09;7.80;;;1.80;;
22034;SDS011;11181;51.002;4.356;2023-05-16T04:06:35;6.97;;;2.00;;
22034;SDS011;11181;51.002;4.356;2023-05-16T04:09:02;9.40;;;1.80;;
22034;SDS011;11181;51.002;4.356;2023-05-16T04:11:30;6.97;;;2.30;;
22034;SDS011;11181;51.002;4.356;2023-05-16T04:13:58;9.77;;;2.20;;
22034;SDS011;11181;51.002;4.356;2023-05-16T04:16:27;7.40;;;2.37;;
22034;SDS011;11181;51.002;4.356;2023-05-16T04:18:54;12.17;;;2.27;;
22034;SDS011;11181;51.002;4.356;2023-05-16T04:21:21;8.87;;;2.50;;
22034;SDS011;11181;51.002;4.356;2023-05-16T04:23:48;5.27;;;1.93;;
22034;SDS011;11181;51.002;4.356;2023-05-16T04:26:15;10.93;;;2.13;;
22034;SDS011;11181;51.002;4.356;2023-05-16T04:28:42;8.63;;;2.37;;
22034;SDS011;11181;51.002;4.356;2023-05-16T04:31:08;9.93;;;1.93;;
22034;SDS011;11181;51.002;4.356;2023-05-16T04:33:39;5.97;;;1.80;;
22034;SDS011;11181;51.002;4.356;2023-05-16T04:36:06;7.43;;;1.90;;
22034;SDS011;11181;51.002;4.356;2023-05-16T04:38:33;11.83;;;2.20;;
22034;SDS011;11181;51.002;4.356;2023-05-16T04:41:00;9.40;;;2.50;;
22034;SDS011;11181;51.002;4.356;2023-05-16T04:43:27;6.00;;;1.80;;
22034;SDS011;11181;51.002;4.356;2023-05-16T04:45:55;5.90;;;1.60;;
22034;SDS011;11181;51.002;4.356;2023-05-16T04:48:22;8.00;;;2.20;;
22034;SDS011;11181;51.002;4.356;2023-05-16T04:50:51;9.57;;;1.73;;
22034;SDS011;11181;51.002;4.356;2023-05-16T04:53:18;7.50;;;2.37;;
22034;SDS011;11181;51.002;4.356;2023-05-16T04:55:45;8.80;;;1.60;;
22034;SDS011;11181;51.002;4.356;2023-05-16T04:58:11;5.30;;;1.97;;
22034;SDS011;11181;51.002;4.356;2023-05-16T05:00:38;4.53;;;1.83;;
22034;SDS011;11181;51.002;4.356;2023-05-16T05:03:06;11.90;;;2.40;;
22034;SDS011;11181;51.002;4.356;2023-05-16T05:05:33;2.93;;;1.50;;
22034;SDS011;11181;51.002;4.356;2023-05-16T05:08:01;7.53;;;1.97;;
22034;SDS011;11181;51.002;4.356;2023-05-16T05:10:28;5.57;;;2.13;;
22034;SDS011;11181;51.002;4.356;2023-05-16T05:12:56;7.17;;;1.80;;
22034;SDS011;11181;51.002;4.356;2023-05-16T05:15:23;9.43;;;2.07;;
22034;SDS011;11181;51.002;4.356;2023-05-16T05:17:50;7.73;;;2.10;;
22034;SDS011;11181;51.002;4.356;2023-05-16T05:20:19;8.73;;;1.83;;
22034;SDS011;11181;51.002;4.356;2023-05-16T05:22:45;8.87;;;1.97;;
22034;SDS011;11181;51.002;4.356;2023-05-16T05:25:14;10.37;;;2.23;;
22034;SDS011;11181;51.002;4.356;2023-05-16T05:27:41;9.47;;;2.03;;
22034;SDS011;11181;51.002;4.356;2023-05-16T05:30:08;5.40;;;1.97;;
22034;SDS011;11181;51.002;4.356;2023-05-16T05:32:35;12.17;;;2.87;;
22034;SDS011;11181;51.002;4.356;2023-05-16T05:35:02;9.40;;;2.30;;
22034;SDS011;11181;51.002;4.356;2023-05-16T05:37:30;9.93;;;2.37;;
22034;SDS011;11181;51.002;4.356;2023-05-16T05:39:57;5.70;;;1.67;;
22034;SDS011;11181;51.002;4.356;2023-05-16T05:42:25;7.00;;;1.93;;
22034;SDS011;11181;51.002;4.356;2023-05-16T05:44:52;8.73;;;2.80;;
22034;SDS011;11181;51.002;4.356;2023-05-16T05:47:19;10.33;;;1.80;;
22034;SDS011;11181;51.002;4.356;2023-05-16T05:49:46;5.17;;;2.33;;
22034;SDS011;11181;51.002;4.356;2023-05-16T05:52:13;6.87;;;2.00;;
22034;SDS011;11181;51.002;4.356;2023-05-16T05:54:40;8.93;;;2.20;;
22034;SDS011;11181;51.002;4.356;2023-05-16T05:57:07;9.27;;;2.23;;
22034;SDS011;11181;51.002;4.356;2023-05-16T05:59:35;9.20;;;1.87;;
22034;SDS011;11181;51.002;4.356;2023-05-16T06:02:02;6.47;;;1.63;;
22034;SDS011;11181;51.002;4.356;2023-05-16T06:04:29;8.63;;;2.10;;
22034;SDS011;11181;51.002;4.356;2023-05-16T06:06:57;8.20;;;2.00;;
22034;SDS011;11181;51.002;4.356;2023-05-16T06:09:24;6.97;;;2.10;;
22034;SDS011;11181;51.002;4.356;2023-05-16T06:11:50;10.17;;;2.33;;
22034;SDS011;11181;51.002;4.356;2023-05-16T06:14:18;6.30;;;1.90;;
22034;SDS011;11181;51.002;4.356;2023-05-16T06:16:47;7.53;;;2.27;;
22034;SDS011;11181;51.002;4.356;2023-05-16T06:19:13;6.13;;;1.67;;
22034;SDS011;11181;51.002;4.356;2023-05-16T06:21:40;10.03;;;2.00;;
22034;SDS011;11181;51.002;4.356;2023-05-16T06:24:08;11.30;;;1.90;;
22034;SDS011;11181;51.002;4.356;2023-05-16T06:26:36;7.63;;;2.37;;
22034;SDS011;11181;51.002;4.356;2023-05-16T06:29:03;4.73;;;2.00;;
22034;SDS011;11181;51.002;4.356;2023-05-16T06:31:30;4.17;;;1.83;;
22034;SDS011;11181;51.002;4.356;2023-05-16T06:33:58;5.23;;;1.73;;
22034;SDS011;11181;51.002;4.356;2023-05-16T06:36:27;7.13;;;1.90;;
22034;SDS011;11181;51.002;4.356;2023-05-16T06:38:55;7.50;;;1.77;;
22034;SDS011;11181;51.002;4.356;2023-05-16T06:41:22;12.43;;;3.27;;
22034;SDS011;11181;51.002;4.356;2023-05-16T06:43:49;10.30;;;2.00;;
22034;SDS011;11181;51.002;4.356;2023-05-16T06:46:16;5.60;;;2.03;;
22034;SDS011;11181;51.002;4.356;2023-05-16T06:48:43;7.13;;;2.60;;
22034;SDS011;11181;51.002;4.356;2023-05-16T06:51:11;11.73;;;1.90;;
22034;SDS011;11181;51.002;4.356;2023-05-16T06:53:39;6.87;;;1.70;;
22034;SDS011;11181;51.002;4.356;2023-05-16T06:56:06;5.53;;;1.63;;
22034;SDS011;11181;51.002;4.356;2023-05-16T06:58:33;8.40;;;1.73;;
22034;SDS011;11181;51.002;4.356;2023-05-16T07:01:00;7.90;;;1.83;;
22034;SDS011;11181;51.002;4.356;2023-05-16T07:03:27;7.23;;;1.57;;
22034;SDS011;11181;51.002;4.356;2023-05-16T07:05:54;10.80;;;1.73;;
22034;SDS011;11181;51.002;4.356;2023-05-16T07:08:23;4.57;;;1.40;;
22034;SDS011;11181;51.002;4.356;2023-05-16T07:10:50;4.87;;;1.67;;
22034;SDS011;11181;51.002;4.356;2023-05-16T07:13:17;5.50;;;1.50;;
22034;SDS011;11181;51.002;4.356;2023-05-16T07:15:44;4.33;;;1.20;;
22034;SDS011;11181;51.002;4.356;2023-05-16T07:18:11;6.93;;;1.87;;
22034;SDS011;11181;51.002;4.356;2023-05-16T07:20:38;5.37;;;1.10;;
22034;SDS011;11181;51.002;4.356;2023-05-16T07:23:05;3.23;;;1.33;;
22034;SDS011;11181;51.002;4.356;2023-05-16T07:25:33;4.37;;;1.00;;
22034;SDS011;11181;51.002;4.356;2023-05-16T07:28:00;5.53;;;1.47;;
22034;SDS011;11181;51.002;4.356;2023-05-16T07:30:27;9.57;;;2.00;;
22034;SDS011;11181;51.002;4.356;2023-05-16T07:32:54;9.63;;;2.20;;
22034;SDS011;11181;51.002;4.356;2023-05-16T07:35:22;8.63;;;1.23;;
22034;SDS011;11181;51.002;4.356;2023-05-16T07:37:49;6.20;;;1.37;;
22034;SDS011;11181;51.002;4.356;2023-05-16T07:40:15;5.80;;;1.10;;
22034;SDS011;11181;51.002;4.356;2023-05-16T07:42:46;6.97;;;1.43;;
22034;SDS011;11181;51.002;4.356;2023-05-16T07:45:13;4.80;;;1.33;;
22034;SDS011;11181;51.002;4.356;2023-05-16T07:47:40;5.63;;;1.07;;
22034;SDS011;11181;51.002;4.356;2023-05-16T07:50:08;3.53;;;0.90;;
22034;SDS011;11181;51.002;4.356;2023-05-16T07:52:35;3.53;;;0.77;;
22034;SDS011;11181;51.002;4.356;2023-05-16T07:55:02;2.93;;;1.10;;
22034;SDS011;11181;51.002;4.356;2023-05-16T07:57:30;7.33;;;1.40;;
22034;SDS011;11181;51.002;4.356;2023-05-16T07:59:58;9.90;;;2.47;;
22034;SDS011;11181;51.002;4.356;2023-05-16T08:02:25;3.97;;;1.30;;
22034;SDS011;11181;51.002;4.356;2023-05-16T08:04:54;9.33;;;1.63;;
22034;SDS011;11181;51.002;4.356;2023-05-16T08:07:22;10.87;;;1.30;;
22034;SDS011;11181;51.002;4.356;2023-05-16T08:09:49;6.33;;;1.20;;
22034;SDS011;11181;51.002;4.356;2023-05-16T08:12:16;4.43;;;1.47;;
22034;SDS011;11181;51.002;4.356;2023-05-16T08:14:43;4.70;;;1.67;;
22034;SDS011;11181;51.002;4.356;2023-05-16T08:17:11;4.73;;;1.17;;
22034;SDS011;11181;51.002;4.356;2023-05-16T08:19:38;5.00;;;1.00;;
22034;SDS011;11181;51.002;4.356;2023-05-16T08:22:05;4.13;;;0.87;;
22034;SDS011;11181;51.002;4.356;2023-05-16T08:24:34;3.53;;;1.20;;
22034;SDS011;11181;51.002;4.356;2023-05-16T08:27:01;2.90;;;0.87;;
22034;SDS011;11181;51.002;4.356;2023-05-16T08:29:28;4.27;;;1.97;;
22034;SDS011;11181;51.002;4.356;2023-05-16T08:31:55;6.27;;;1.30;;
22034;SDS011;11181;51.002;4.356;2023-05-16T08:34:23;6.23;;;1.50;;
22034;SDS011;11181;51.002;4.356;2023-05-16T08:36:50;5.73;;;1.10;;
22034;SDS011;11181;51.002;4.356;2023-05-16T08:39:18;5.27;;;1.10;;
22034;SDS011;11181;51.002;4.356;2023-05-16T08:41:45;6.33;;;1.70;;
22034;SDS011;11181;51.002;4.356;2023-05-16T08:44:12;5.63;;;1.20;;
22034;SDS011;11181;51.002;4.356;2023-05-16T08:46:45;3.00;;;0.83;;
22034;SDS011;11181;51.002;4.356;2023-05-16T08:49:16;4.47;;;1.00;;
22034;SDS011;11181;51.002;4.356;2023-05-16T08:51:45;8.60;;;1.37;;
22034;SDS011;11181;51.002;4.356;2023-05-16T08:54:14;2.63;;;1.30;;
22034;SDS011;11181;51.002;4.356;2023-05-16T08:56:42;4.40;;;1.20;;
22034;SDS011;11181;51.002;4.356;2023-05-16T08:59:10;2.07;;;0.77;;
22034;SDS011;11181;51.002;4.356;2023-05-16T09:01:37;3.00;;;1.10;;
22034;SDS011;11181;51.002;4.356;2023-05-16T09:04:06;2.50;;;1.40;;
22034;SDS011;11181;51.002;4.356;2023-05-16T09:06:34;3.20;;;0.80;;
22034;SDS011;11181;51.002;4.356;2023-05-16T09:09:02;4.37;;;1.10;;
22034;SDS011;11181;51.002;4.356;2023-05-16T09:11:32;5.80;;;1.13;;
22034;SDS011;11181;51.002;4.356;2023-05-16T09:13:59;8.57;;;1.87;;
22034;SDS011;11181;51.002;4.356;2023-05-16T09:16:26;6.40;;;1.90;;
22034;SDS011;11181;51.002;4.356;2023-05-16T09:18:53;2.73;;;1.07;;
22034;SDS011;11181;51.002;4.356;2023-05-16T09:21:22;4.47;;;1.17;;
22034;SDS011;11181;51.002;4.356;2023-05-16T09:23:53;3.97;;;1.03;;
22034;SDS011;11181;51.002;4.356;2023-05-16T09:26:22;4.60;;;1.20;;
22034;SDS011;11181;51.002;4.356;2023-05-16T09:28:52;5.30;;;1.10;;
22034;SDS011;11181;51.002;4.356;2023-05-16T09:31:20;4.40;;;1.17;;
22034;SDS011;11181;51.002;4.356;2023-05-16T09:33:50;5.07;;;1.03;;
22034;SDS011;11181;51.002;4.356;2023-05-16T09:36:17;4.07;;;0.80;;
22034;SDS011;11181;51.002;4.356;2023-05-16T09:38:44;5.33;;;0.90;;
22034;SDS011;11181;51.002;4.356;2023-05-16T09:41:11;7.07;;;1.00;;
22034;SDS011;11181;51.002;4.356;2023-05-16T09:43:40;2.27;;;0.93;;
22034;SDS011;11181;51.002;4.356;2023-05-16T09:46:08;4.90;;;1.23;;
22034;SDS011;11181;51.002;4.356;2023-05-16T09:48:41;2.97;;;0.90;;
22034;SDS011;11181;51.002;4.356;2023-05-16T09:51:10;3.50;;;1.10;;
22034;SDS011;11181;51.002;4.356;2023-05-16T09:53:39;5.13;;;1.17;;
22034;SDS011;11181;51.002;4.356;2023-05-16T09:56:07;3.23;;;1.00;;
22034;SDS011;11181;51.002;4.356;2023-05-16T09:58:36;2.00;;;0.83;;
22034;SDS011;11181;51.002;4.356;2023-05-16T10:01:06;6.40;;;1.20;;
22034;SDS011;11181;51.002;4.356;2023-05-16T10:03:34;5.50;;;1.17;;
22034;SDS011;11181;51.002;4.356;2023-05-16T10:06:03;3.40;;;0.90;;
22034;SDS011;11181;51.002;4.356;2023-05-16T10:08:32;1.93;;;0.70;;
22034;SDS011;11181;51.002;4.356;2023-05-16T10:11:01;3.60;;;0.93;;
22034;SDS011;11181;51.002;4.356;2023-05-16T10:13:30;1.67;;;0.80;;
22034;SDS011;11181;51.002;4.356;2023-05-16T10:15:59;3.13;;;0.83;;
22034;SDS011;11181;51.002;4.356;2023-05-16T10:18:29;6.47;;;1.37;;
22034;SDS011;11181;51.002;4.356;2023-05-16T10:21:00;4.10;;;1.13;;
22034;SDS011;11181;51.002;4.356;2023-05-16T10:23:30;1.80;;;1.20;;
22034;SDS011;11181;51.002;4.356;2023-05-16T10:25:59;3.13;;;0.77;;
22034;SDS011;11181;51.002;4.356;2023-05-16T10:28:28;2.90;;;0.93;;
22034;SDS011;11181;51.002;4.356;2023-05-16T10:30:56;2.23;;;0.73;;
22034;SDS011;11181;51.002;4.356;2023-05-16T10:33:23;5.17;;;1.53;;
22034;SDS011;11181;51.002;4.356;2023-05-16T10:35:51;4.90;;;1.03;;
22034;SDS011;11181;51.002;4.356;2023-05-16T10:38:18;2.80;;;0.90;;
22034;SDS011;11181;51.002;4.356;2023-05-16T10:40:48;4.07;;;1.03;;
22034;SDS011;11181;51.002;4.356;2023-05-16T10:43:22;4.03;;;1.03;;
22034;SDS011;11181;51.002;4.356;2023-05-16T10:45:54;7.23;;;1.10;;
22034;SDS011;11181;51.002;4.356;2023-05-16T10:48:27;1.57;;;0.80;;
22034;SDS011;11181;51.002;4.356;2023-05-16T10:50:57;3.07;;;0.80;;
22034;SDS011;11181;51.002;4.356;2023-05-16T10:53:28;3.30;;;0.97;;
22034;SDS011;11181;51.002;4.356;2023-05-16T10:56:06;3.90;;;1.10;;
22034;SDS011;11181;51.002;4.356;2023-05-16T10:58:45;2.53;;;0.80;;
22034;SDS011;11181;51.002;4.356;2023-05-16T11:01:22;3.33;;;1.57;;
22034;SDS011;11181;51.002;4.356;2023-05-16T11:03:59;4.00;;;1.30;;
22034;SDS011;11181;51.002;4.356;2023-05-16T11:06:43;2.13;;;0.80;;
22034;SDS011;11181;51.002;4.356;2023-05-16T11:09:18;6.70;;;1.10;;
22034;SDS011;11181;51.002;4.356;2023-05-16T11:11:52;3.97;;;1.03;;
22034;SDS011;11181;51.002;4.356;2023-05-16T11:14:23;4.90;;;1.20;;
22034;SDS011;11181;51.002;4.356;2023-05-16T11:16:54;3.33;;;1.07;;
22034;SDS011;11181;51.002;4.356;2023-05-16T11:19:30;6.10;;;0.93;;
22034;SDS011;11181;51.002;4.356;2023-05-16T11:22:10;2.60;;;1.07;;
22034;SDS011;11181;51.002;4.356;2023-05-16T11:24:51;1.70;;;1.00;;
22034;SDS011;11181;51.002;4.356;2023-05-16T11:27:23;2.53;;;0.87;;
22034;SDS011;11181;51.002;4.356;2023-05-16T11:29:53;3.73;;;0.90;;
22034;SDS011;11181;51.002;4.356;2023-05-16T11:32:21;2.17;;;0.87;;
22034;SDS011;11181;51.002;4.356;2023-05-16T11:34:49;2.03;;;0.83;;
22034;SDS011;11181;51.002;4.356;2023-05-16T11:37:18;6.33;;;1.27;;
22034;SDS011;11181;51.002;4.356;2023-05-16T11:39:47;2.07;;;0.70;;
22034;SDS011;11181;51.002;4.356;2023-05-16T11:42:14;4.27;;;0.80;;
22034;SDS011;11181;51.002;4.356;2023-05-16T11:44:42;5.23;;;1.70;;
22034;SDS011;11181;51.002;4.356;2023-05-16T11:47:09;2.73;;;0.80;;
22034;SDS011;11181;51.002;4.356;2023-05-16T11:49:36;3.23;;;1.03;;
22034;SDS011;11181;51.002;4.356;2023-05-16T11:52:03;3.37;;;0.80;;
22034;SDS011;11181;51.002;4.356;2023-05-16T11:54:32;5.70;;;1.90;;
22034;SDS011;11181;51.002;4.356;2023-05-16T11:57:00;4.07;;;1.07;;
22034;SDS011;11181;51.002;4.356;2023-05-16T11:59:27;1.97;;;0.67;;
22034;SDS011;11181;51.002;4.356;2023-05-16T12:01:55;2.13;;;1.10;;
22034;SDS011;11181;51.002;4.356;2023-05-16T12:04:22;6.47;;;1.30;;
22034;SDS011;11181;51.002;4.356;2023-05-16T12:06:58;4.30;;;1.67;;
22034;SDS011;11181;51.002;4.356;2023-05-16T12:09:26;4.67;;;1.20;;
22034;SDS011;11181;51.002;4.356;2023-05-16T12:11:55;5.67;;;1.20;;
22034;SDS011;11181;51.002;4.356;2023-05-16T12:14:22;2.37;;;1.07;;
22034;SDS011;11181;51.002;4.356;2023-05-16T12:16:50;2.43;;;1.20;;
22034;SDS011;11181;51.002;4.356;2023-05-16T12:19:18;3.23;;;1.10;;
22034;SDS011;11181;51.002;4.356;2023-05-16T12:21:46;3.43;;;0.93;;
22034;SDS011;11181;51.002;4.356;2023-05-16T12:24:13;2.20;;;0.97;;
22034;SDS011;11181;51.002;4.356;2023-05-16T12:26:41;1.50;;;0.80;;
22034;SDS011;11181;51.002;4.356;2023-05-16T12:29:10;2.47;;;0.90;;
22034;SDS011;11181;51.002;4.356;2023-05-16T12:31:37;7.40;;;1.23;;
22034;SDS011;11181;51.002;4.356;2023-05-16T12:34:13;1.83;;;0.93;;
22034;SDS011;11181;51.002;4.356;2023-05-16T12:36:42;2.20;;;0.67;;
22034;SDS011;11181;51.002;4.356;2023-05-16T12:39:10;2.60;;;0.70;;
22034;SDS011;11181;51.002;4.356;2023-05-16T12:41:40;7.20;;;2.50;;
22034;SDS011;11181;51.002;4.356;2023-05-16T12:44:12;3.17;;;0.77;;
22034;SDS011;11181;51.002;4.356;2023-05-16T12:46:41;5.83;;;1.03;;
22034;SDS011;11181;51.002;4.356;2023-05-16T12:49:09;5.50;;;1.00;;
22034;SDS011;11181;51.002;4.356;2023-05-16T12:51:37;2.10;;;0.70;;
22034;SDS011;11181;51.002;4.356;2023-05-16T12:54:07;4.37;;;0.80;;
22034;SDS011;11181;51.002;4.356;2023-05-16T12:56:36;1.77;;;0.70;;
22034;SDS011;11181;51.002;4.356;2023-05-16T12:59:04;3.17;;;0.87;;
22034;SDS011;11181;51.002;4.356;2023-05-16T13:01:32;3.27;;;0.70;;
22034;SDS011;11181;51.002;4.356;2023-05-16T13:04:00;1.73;;;0.63;;
22034;SDS011;11181;51.002;4.356;2023-05-16T13:06:28;1.83;;;0.70;;
22034;SDS011;11181;51.002;4.356;2023-05-16T13:08:55;2.37;;;0.90;;
22034;SDS011;11181;51.002;4.356;2023-05-16T13:11:22;4.17;;;1.07;;
22034;SDS011;11181;51.002;4.356;2023-05-16T13:13:50;2.60;;;0.57;;
22034;SDS011;11181;51.002;4.356;2023-05-16T13:16:17;2.73;;;0.47;;
22034;SDS011;11181;51.002;4.356;2023-05-16T13:18:45;2.17;;;1.07;;
22034;SDS011;11181;51.002;4.356;2023-05-16T13:21:12;1.70;;;0.97;;
22034;SDS011;11181;51.002;4.356;2023-05-16T13:23:40;2.93;;;0.87;;
22034;SDS011;11181;51.002;4.356;2023-05-16T13:26:07;2.10;;;1.10;;
22034;SDS011;11181;51.002;4.356;2023-05-16T13:28:34;5.13;;;1.23;;
22034;SDS011;11181;51.002;4.356;2023-05-16T13:31:01;2.47;;;0.63;;
22034;SDS011;11181;51.002;4.356;2023-05-16T13:33:28;5.20;;;1.10;;
22034;SDS011;11181;51.002;4.356;2023-05-16T13:35:56;1.60;;;0.90;;
22034;SDS011;11181;51.002;4.356;2023-05-16T13:38:23;3.30;;;0.80;;
22034;SDS011;11181;51.002;4.356;2023-05-16T13:40:50;2.23;;;0.90;;
22034;SDS011;11181;51.002;4.356;2023-05-16T13:43:17;4.10;;;0.90;;
22034;SDS011;11181;51.002;4.356;2023-05-16T13:45:44;4.07;;;0.90;;
22034;SDS011;11181;51.002;4.356;2023-05-16T13:48:11;4.83;;;1.27;;
22034;SDS011;11181;51.002;4.356;2023-05-16T13:50:38;6.47;;;1.27;;
22034;SDS011;11181;51.002;4.356;2023-05-16T13:53:07;3.37;;;1.60;;
22034;SDS011;11181;51.002;4.356;2023-05-16T13:55:34;2.60;;;0.90;;
22034;SDS011;11181;51.002;4.356;2023-05-16T13:58:01;2.13;;;0.93;;
22034;SDS011;11181;51.002;4.356;2023-05-16T14:00:28;4.50;;;0.80;;
22034;SDS011;11181;51.002;4.356;2023-05-16T14:02:55;6.17;;;1.00;;
22034;SDS011;11181;51.002;4.356;2023-05-16T14:05:22;3.10;;;0.97;;
22034;SDS011;11181;51.002;4.356;2023-05-16T14:07:50;2.17;;;0.83;;
22034;SDS011;11181;51.002;4.356;2023-05-16T14:10:18;2.87;;;0.63;;
22034;SDS011;11181;51.002;4.356;2023-05-16T14:12:45;3.13;;;0.67;;
22034;SDS011;11181;51.002;4.356;2023-05-16T14:15:13;2.63;;;0.63;;
22034;SDS011;11181;51.002;4.356;2023-05-16T14:17:40;2.83;;;1.03;;
22034;SDS011;11181;51.002;4.356;2023-05-16T14:20:07;1.83;;;0.77;;
22034;SDS011;11181;51.002;4.356;2023-05-16T14:22:34;7.40;;;1.00;;
22034;SDS011;11181;51.002;4.356;2023-05-16T14:25:02;4.30;;;0.80;;
22034;SDS011;11181;51.002;4.356;2023-05-16T14:27:31;4.33;;;0.83;;
22034;SDS011;11181;51.002;4.356;2023-05-16T14:29:58;4.30;;;1.37;;
22034;SDS011;11181;51.002;4.356;2023-05-16T14:32:26;4.33;;;0.93;;
22034;SDS011;11181;51.002;4.356;2023-05-16T14:34:53;3.17;;;0.80;;
22034;SDS011;11181;51.002;4.356;2023-05-16T14:37:20;4.07;;;0.80;;
22034;SDS011;11181;51.002;4.356;2023-05-16T14:39:47;4.27;;;0.90;;
22034;SDS011;11181;51.002;4.356;2023-05-16T14:42:15;5.03;;;0.77;;
22034;SDS011;11181;51.002;4.356;2023-05-16T14:44:44;3.97;;;0.90;;
22034;SDS011;11181;51.002;4.356;2023-05-16T14:47:11;1.20;;;0.60;;
22034;SDS011;11181;51.002;4.356;2023-05-16T14:49:38;1.37;;;0.50;;
22034;SDS011;11181;51.002;4.356;2023-05-16T14:52:05;4.63;;;1.13;;